Time;durP1;ratioP1;P1;durP2;ratioP2;P2;SDS_P1;SDS_P2;PMS_P1;PMS_P2;Temp;Humidity;BMP_temperature;BMP_pressure;BME280_temperature;BME280_humidity;BME280_pressure;Samples;Min_cycle;Max_cycle;Signal;HPM_P1;HPM_P2
2023/12/29 00:00:39;;;;;;;1.40;1.30;;;8.60;99.90;;;;;;5049762;27;20931;-73
2023/12/29 00:03:06;;;;;;;2.20;1.57;;;8.60;99.90;;;;;;5050853;27;20720;-73
2023/12/29 00:05:34;;;;;;;1.60;1.50;;;8.50;99.90;;;;;;5043432;28;20622;-71
2023/12/29 00:08:01;;;;;;;1.30;1.20;;;8.50;99.90;;;;;;5048440;28;20622;-71
2023/12/29 00:10:28;;;;;;;1.73;1.60;;;8.60;99.90;;;;;;5046350;28;21566;-71
2023/12/29 00:12:54;;;;;;;1.93;1.73;;;8.50;99.90;;;;;;5046168;28;20670;-71
2023/12/29 00:15:21;;;;;;;2.40;1.50;;;8.50;99.90;;;;;;5049958;28;20636;-72
2023/12/29 00:17:48;;;;;;;2.57;2.03;;;8.60;99.90;;;;;;5064951;28;21071;-72
2023/12/29 00:20:15;;;;;;;1.13;0.90;;;8.60;99.90;;;;;;5063237;28;20832;-72
2023/12/29 00:22:43;;;;;;;1.60;1.50;;;8.70;99.90;;;;;;5063894;28;20728;-72
2023/12/29 00:25:11;;;;;;;2.23;2.03;;;8.70;99.90;;;;;;5060774;28;21244;-72
2023/12/29 00:27:37;;;;;;;1.03;1.03;;;8.70;99.90;;;;;;5062568;27;20630;-72
2023/12/29 00:30:05;;;;;;;3.30;1.80;;;8.70;99.90;;;;;;5059613;27;20636;-72
2023/12/29 00:32:32;;;;;;;2.70;1.80;;;8.80;99.90;;;;;;5060781;27;20665;-72
2023/12/29 00:34:59;;;;;;;2.00;1.27;;;8.80;99.90;;;;;;5053747;27;20626;-72
2023/12/29 00:37:25;;;;;;;1.87;1.40;;;8.80;99.90;;;;;;5057842;28;20637;-72
2023/12/29 00:39:54;;;;;;;1.67;1.40;;;8.60;99.90;;;;;;5058342;28;21277;-72
2023/12/29 00:42:20;;;;;;;1.50;1.40;;;8.70;99.90;;;;;;5054472;28;20999;-72
2023/12/29 00:44:47;;;;;;;1.10;1.00;;;8.70;99.90;;;;;;5057681;28;20636;-72
2023/12/29 00:47:14;;;;;;;0.97;0.97;;;8.60;99.90;;;;;;5053548;28;20628;-72
2023/12/29 00:49:41;;;;;;;1.60;1.50;;;8.70;99.90;;;;;;5053524;28;20622;-73
2023/12/29 00:52:08;;;;;;;2.97;2.00;;;8.70;99.90;;;;;;5052213;28;21225;-72
2023/12/29 00:54:35;;;;;;;2.20;2.00;;;8.70;99.90;;;;;;5047700;28;21065;-72
2023/12/29 00:57:03;;;;;;;2.00;1.40;;;8.80;99.90;;;;;;5052642;28;20725;-72
2023/12/29 00:59:30;;;;;;;1.60;1.50;;;8.70;99.90;;;;;;5050540;28;20629;-72
2023/12/29 01:01:57;;;;;;;1.33;1.23;;;8.70;99.90;;;;;;5050580;28;20623;-72
2023/12/29 01:04:23;;;;;;;3.60;1.80;;;8.70;99.90;;;;;;5043110;28;20630;-72
2023/12/29 01:06:50;;;;;;;1.70;1.60;;;8.80;99.90;;;;;;5047892;28;20722;-72
2023/12/29 01:09:17;;;;;;;2.00;1.83;;;8.70;99.90;;;;;;5047170;28;20636;-72
2023/12/29 01:11:44;;;;;;;1.63;1.53;;;8.70;99.90;;;;;;5045684;28;20627;-72
2023/12/29 01:14:12;;;;;;;1.37;1.27;;;8.70;99.90;;;;;;5047532;28;20677;-72
2023/12/29 01:16:39;;;;;;;1.47;1.37;;;8.70;99.90;;;;;;5064265;28;20622;-72
2023/12/29 01:19:05;;;;;;;2.30;2.10;;;8.80;99.90;;;;;;5062709;28;20618;-72
2023/12/29 01:21:33;;;;;;;3.30;2.23;;;8.80;99.90;;;;;;5062518;28;20972;-72
2023/12/29 01:24:00;;;;;;;2.60;1.93;;;8.80;99.90;;;;;;5061386;27;20625;-72
2023/12/29 01:26:27;;;;;;;1.73;1.63;;;8.80;99.90;;;;;;5061313;28;20625;-72
2023/12/29 01:28:54;;;;;;;1.33;1.23;;;8.80;99.90;;;;;;5060623;28;21266;-72
2023/12/29 01:31:22;;;;;;;1.53;1.43;;;8.80;99.90;;;;;;5057607;28;21193;-72
2023/12/29 01:33:49;;;;;;;1.60;1.50;;;8.70;99.90;;;;;;5059077;28;20716;-72
2023/12/29 01:36:19;;;;;;;2.80;1.53;;;8.60;99.90;;;;;;5055809;28;21000;-72
2023/12/29 01:38:45;;;;;;;3.10;1.83;;;8.70;99.90;;;;;;5057973;28;20618;-73
2023/12/29 01:41:13;;;;;;;1.77;1.60;;;8.80;99.90;;;;;;5054053;28;20630;-72
2023/12/29 01:44:21;;;;;;;1.50;1.40;;;8.80;99.90;;;;;;5055936;27;20630;-72
2023/12/29 01:46:52;;;;;;;2.03;1.80;;;8.80;99.90;;;;;;5047905;28;20636;-72
2023/12/29 01:49:19;;;;;;;1.70;1.33;;;8.80;99.90;;;;;;5045714;28;20627;-72
2023/12/29 01:51:50;;;;;;;1.80;1.57;;;8.80;99.90;;;;;;5052637;28;20718;-72
2023/12/29 01:54:18;;;;;;;4.03;2.03;;;8.90;99.90;;;;;;5046454;28;20674;-72
2023/12/29 01:56:45;;;;;;;3.03;2.00;;;8.90;99.90;;;;;;5049179;28;20626;-72
2023/12/29 01:59:13;;;;;;;2.07;1.97;;;9.00;99.90;;;;;;5049494;27;20746;-73
2023/12/29 02:01:41;;;;;;;2.10;1.67;;;8.90;99.90;;;;;;5047259;28;20631;-72
2023/12/29 02:04:09;;;;;;;1.83;1.67;;;8.90;99.90;;;;;;5040929;28;20710;-72
2023/12/29 02:06:36;;;;;;;2.10;1.90;;;8.90;99.90;;;;;;5046322;28;20629;-72
2023/12/29 02:09:04;;;;;;;2.73;1.70;;;8.80;99.90;;;;;;5045248;28;20637;-72
2023/12/29 02:11:31;;;;;;;2.07;1.87;;;8.80;99.90;;;;;;5043835;28;20625;-72
2023/12/29 02:13:59;;;;;;;3.23;2.30;;;8.80;99.90;;;;;;5044846;28;20702;-72
2023/12/29 02:16:36;;;;;;;2.57;1.77;;;8.80;99.90;;;;;;5063667;28;21217;-72
2023/12/29 02:19:13;;;;;;;1.93;1.83;;;8.70;99.90;;;;;;5062583;27;21198;-72
2023/12/29 02:21:42;;;;;;;3.23;1.83;;;8.80;99.90;;;;;;5060028;28;20756;-72
2023/12/29 02:24:10;;;;;;;2.00;1.90;;;8.80;99.90;;;;;;5060148;28;20640;-72
2023/12/29 02:26:43;;;;;;;3.30;2.03;;;8.90;99.90;;;;;;5060704;28;20959;-72
2023/12/29 02:29:15;;;;;;;2.20;2.00;;;8.90;99.90;;;;;;5057892;28;20712;-72
2023/12/29 02:31:46;;;;;;;2.03;1.87;;;8.90;99.90;;;;;;5058654;28;21115;-72
2023/12/29 02:34:14;;;;;;;2.23;1.77;;;8.90;99.90;;;;;;5055468;28;20761;-72
2023/12/29 02:36:42;;;;;;;2.10;1.77;;;8.90;99.90;;;;;;5057717;28;20657;-72
2023/12/29 02:39:10;;;;;;;2.60;2.27;;;9.00;99.90;;;;;;5055064;27;21197;-72
2023/12/29 02:41:39;;;;;;;2.90;2.50;;;9.00;99.90;;;;;;5055294;28;20619;-72
2023/12/29 02:44:06;;;;;;;4.90;2.40;;;9.10;99.90;;;;;;5052535;28;20630;-72
2023/12/29 02:46:34;;;;;;;2.53;1.87;;;9.10;99.90;;;;;;5053034;28;20978;-72
2023/12/29 02:49:01;;;;;;;3.80;2.20;;;9.00;99.90;;;;;;5051626;28;20625;-72
2023/12/29 02:51:29;;;;;;;2.70;2.20;;;8.90;99.90;;;;;;5049933;28;21268;-72
2023/12/29 02:53:57;;;;;;;2.63;2.03;;;8.90;99.90;;;;;;5047184;28;21303;-72
2023/12/29 02:56:25;;;;;;;2.03;1.90;;;8.90;99.90;;;;;;5048107;28;20704;-72
2023/12/29 02:58:54;;;;;;;2.03;1.70;;;8.80;99.90;;;;;;5049059;28;20992;-72
2023/12/29 03:01:22;;;;;;;2.00;1.60;;;8.90;99.90;;;;;;5041309;28;20665;-72
2023/12/29 03:03:49;;;;;;;2.63;2.30;;;8.80;99.90;;;;;;5043765;28;20623;-72
2023/12/29 03:06:16;;;;;;;3.40;1.90;;;8.80;99.90;;;;;;5046442;28;21012;-72
2023/12/29 03:08:45;;;;;;;2.13;1.93;;;8.90;99.90;;;;;;5045776;28;20758;-72
2023/12/29 03:11:13;;;;;;;2.47;2.27;;;8.80;99.90;;;;;;5043352;28;21177;-71
2023/12/29 03:13:40;;;;;;;2.30;2.20;;;8.80;99.90;;;;;;5043738;28;21293;-72
2023/12/29 03:16:09;;;;;;;2.50;1.60;;;8.80;99.90;;;;;;5044732;28;20635;-72
2023/12/29 03:18:39;;;;;;;2.80;2.20;;;8.70;99.90;;;;;;5062348;28;20626;-72
2023/12/29 03:21:07;;;;;;;2.93;2.10;;;8.80;99.90;;;;;;5060951;28;20651;-72
2023/12/29 03:23:34;;;;;;;2.10;1.90;;;8.80;99.90;;;;;;5064770;28;21215;-72
2023/12/29 03:26:02;;;;;;;2.03;1.90;;;8.70;99.90;;;;;;5062511;28;20629;-72
2023/12/29 03:28:29;;;;;;;2.30;1.87;;;8.70;99.90;;;;;;5062516;28;20641;-72
2023/12/29 03:30:56;;;;;;;2.23;2.03;;;8.70;99.90;;;;;;5072257;27;20617;-72
2023/12/29 03:33:24;;;;;;;2.03;1.93;;;8.80;99.90;;;;;;5076109;27;20662;-72
2023/12/29 03:35:52;;;;;;;2.93;2.10;;;8.80;99.90;;;;;;5085786;27;20625;-72
2023/12/29 03:38:19;;;;;;;2.40;1.87;;;8.80;99.90;;;;;;5092540;27;20625;-71
2023/12/29 03:40:47;;;;;;;2.83;1.63;;;8.80;99.90;;;;;;5092582;27;20701;-72
2023/12/29 03:43:14;;;;;;;2.10;1.90;;;8.70;99.90;;;;;;5084265;27;21040;-72
2023/12/29 03:45:42;;;;;;;1.90;1.80;;;8.70;99.90;;;;;;5079289;27;20721;-72
2023/12/29 03:48:09;;;;;;;2.53;1.70;;;8.60;99.90;;;;;;5061062;28;20733;-72
2023/12/29 03:50:38;;;;;;;1.67;1.57;;;8.60;99.90;;;;;;5060305;28;20617;-72
2023/12/29 03:53:05;;;;;;;3.27;2.10;;;8.50;99.90;;;;;;5059857;28;20691;-72
2023/12/29 03:55:32;;;;;;;2.50;1.53;;;8.50;99.90;;;;;;5056029;28;21143;-72
2023/12/29 03:57:58;;;;;;;1.90;1.47;;;8.50;99.90;;;;;;5059591;28;20629;-72
2023/12/29 04:00:25;;;;;;;2.50;2.07;;;8.40;99.90;;;;;;5056506;28;20629;-73
2023/12/29 04:02:52;;;;;;;3.40;2.47;;;8.40;99.90;;;;;;5059521;28;20195;-73
2023/12/29 04:05:19;;;;;;;2.23;2.03;;;8.40;99.90;;;;;;5053472;28;20630;-72
2023/12/29 04:07:47;;;;;;;1.70;1.60;;;8.40;99.90;;;;;;5056924;28;21870;-73
2023/12/29 04:10:14;;;;;;;1.90;1.77;;;8.40;99.90;;;;;;5053111;28;20626;-73
2023/12/29 04:12:41;;;;;;;2.13;1.87;;;8.40;99.90;;;;;;5054053;28;20630;-73
2023/12/29 04:15:08;;;;;;;2.60;2.40;;;8.30;99.90;;;;;;5052919;28;20680;-72
2023/12/29 04:17:35;;;;;;;1.70;1.60;;;8.30;99.90;;;;;;5051368;28;20667;-73
2023/12/29 04:20:02;;;;;;;3.50;2.37;;;8.30;99.90;;;;;;5047277;28;20632;-73
2023/12/29 04:22:29;;;;;;;2.33;2.10;;;8.30;99.90;;;;;;5049338;28;20698;-73
2023/12/29 04:24:57;;;;;;;3.57;2.20;;;8.20;99.90;;;;;;5050006;28;20947;-73
2023/12/29 04:27:24;;;;;;;2.03;1.63;;;8.30;99.90;;;;;;5048357;28;20629;-73
2023/12/29 04:29:50;;;;;;;1.97;1.77;;;8.30;99.90;;;;;;5047610;28;20635;-73
2023/12/29 04:32:17;;;;;;;2.77;2.00;;;8.30;99.90;;;;;;5046052;28;20635;-73
2023/12/29 04:34:44;;;;;;;2.80;1.53;;;8.30;99.90;;;;;;5040804;28;20996;-73
2023/12/29 04:37:11;;;;;;;2.23;1.60;;;8.30;99.90;;;;;;5055832;28;20634;-72
2023/12/29 04:39:38;;;;;;;2.27;1.87;;;8.40;99.90;;;;;;5065117;27;20625;-73
2023/12/29 04:42:07;;;;;;;2.53;1.70;;;8.40;99.90;;;;;;5062674;28;20624;-73
2023/12/29 04:44:33;;;;;;;1.70;1.57;;;8.50;99.90;;;;;;5063599;27;20634;-73
2023/12/29 04:47:00;;;;;;;1.80;1.70;;;8.40;99.90;;;;;;5061471;28;20637;-73
2023/12/29 04:49:27;;;;;;;2.23;2.03;;;8.30;99.90;;;;;;5059685;28;20625;-73
2023/12/29 04:51:54;;;;;;;3.07;2.27;;;8.40;99.90;;;;;;5060406;28;20627;-73
2023/12/29 04:54:20;;;;;;;2.40;2.20;;;8.40;99.90;;;;;;5054850;28;21213;-73
2023/12/29 04:56:47;;;;;;;2.33;2.13;;;8.30;99.90;;;;;;5055477;28;20633;-73
2023/12/29 04:59:15;;;;;;;3.60;1.67;;;8.30;99.90;;;;;;5056022;28;20618;-73
2023/12/29 05:01:42;;;;;;;2.70;2.10;;;8.40;99.90;;;;;;5057351;28;21042;-73
2023/12/29 05:04:09;;;;;;;4.40;1.97;;;8.30;99.90;;;;;;5052500;28;21109;-73
2023/12/29 05:06:36;;;;;;;2.30;2.10;;;8.30;99.90;;;;;;5054464;28;20990;-73
2023/12/29 05:09:03;;;;;;;1.83;1.73;;;8.30;99.90;;;;;;5055023;28;20721;-73
2023/12/29 05:11:30;;;;;;;2.30;2.10;;;8.40;99.90;;;;;;5051469;28;20619;-73
2023/12/29 05:13:57;;;;;;;1.53;1.37;;;8.40;99.90;;;;;;5048178;28;21237;-73
2023/12/29 05:16:25;;;;;;;2.47;2.27;;;8.50;99.90;;;;;;5050527;27;21185;-73
2023/12/29 05:18:52;;;;;;;2.03;1.80;;;8.40;99.90;;;;;;5051666;28;20619;-72
2023/12/29 05:21:20;;;;;;;2.03;1.53;;;8.40;99.90;;;;;;5048452;28;20627;-72
2023/12/29 05:23:48;;;;;;;2.87;2.20;;;8.50;99.90;;;;;;5049374;28;20633;-72
2023/12/29 05:26:15;;;;;;;3.13;1.93;;;8.40;99.90;;;;;;5048235;27;20724;-72
2023/12/29 05:28:42;;;;;;;1.50;1.40;;;8.40;99.90;;;;;;5047173;28;20625;-72
2023/12/29 05:31:09;;;;;;;2.90;1.87;;;8.40;99.90;;;;;;5046818;28;20959;-72
2023/12/29 05:33:37;;;;;;;2.27;1.57;;;8.40;99.90;;;;;;5042024;28;20671;-72
2023/12/29 05:36:08;;;;;;;2.50;1.80;;;8.40;99.90;;;;;;5044726;28;20618;-72
2023/12/29 05:38:35;;;;;;;2.10;1.70;;;8.40;99.90;;;;;;5064517;27;20633;-72
2023/12/29 05:41:03;;;;;;;1.93;1.83;;;8.40;99.90;;;;;;5062370;28;21115;-72
2023/12/29 05:43:31;;;;;;;1.70;1.60;;;8.30;99.90;;;;;;5062413;28;20728;-72
2023/12/29 05:45:57;;;;;;;4.60;2.60;;;8.30;99.90;;;;;;5060627;28;21117;-72
2023/12/29 05:48:24;;;;;;;2.70;2.10;;;8.40;99.90;;;;;;5060527;28;20786;-72
2023/12/29 05:50:53;;;;;;;1.67;1.57;;;8.40;99.90;;;;;;5058643;28;20625;-73
2023/12/29 05:53:20;;;;;;;2.00;1.60;;;8.30;99.90;;;;;;5057067;28;20627;-72
2023/12/29 05:55:47;;;;;;;1.83;1.73;;;8.30;99.90;;;;;;5055001;28;20749;-72
2023/12/29 05:58:14;;;;;;;3.73;2.10;;;8.40;99.90;;;;;;5055933;28;20682;-72
2023/12/29 06:00:40;;;;;;;2.20;1.77;;;8.20;99.90;;;;;;5056632;28;20649;-72
2023/12/29 06:03:07;;;;;;;1.70;1.60;;;8.30;99.90;;;;;;5055858;28;20793;-72
2023/12/29 06:05:34;;;;;;;2.50;2.33;;;8.30;99.90;;;;;;5053079;28;20721;-72
2023/12/29 06:08:02;;;;;;;2.57;2.20;;;8.30;99.90;;;;;;5054709;28;20734;-72
2023/12/29 06:10:29;;;;;;;5.30;1.90;;;8.40;99.90;;;;;;5051331;28;20722;-73
2023/12/29 06:12:56;;;;;;;4.70;2.03;;;8.40;99.90;;;;;;5047147;28;21060;-73
2023/12/29 06:15:23;;;;;;;2.83;2.30;;;8.40;99.90;;;;;;5050161;28;20768;-73
2023/12/29 06:17:49;;;;;;;3.10;2.00;;;8.30;99.90;;;;;;5051511;28;20619;-73
2023/12/29 06:20:16;;;;;;;2.73;1.93;;;8.40;99.90;;;;;;5048823;28;20762;-72
2023/12/29 06:22:44;;;;;;;1.60;1.50;;;8.40;99.90;;;;;;5048268;28;20654;-72
2023/12/29 06:25:12;;;;;;;2.10;2.00;;;8.50;99.90;;;;;;5048588;27;20685;-72
2023/12/29 06:27:40;;;;;;;1.67;1.57;;;8.40;99.90;;;;;;5046316;28;21182;-72
2023/12/29 06:30:08;;;;;;;2.00;1.70;;;8.40;99.90;;;;;;5046490;27;20642;-73
2023/12/29 06:32:36;;;;;;;1.90;1.60;;;8.40;99.90;;;;;;5045320;28;20630;-72
2023/12/29 06:35:03;;;;;;;1.67;1.57;;;8.30;99.90;;;;;;5039093;28;20706;-72
2023/12/29 06:37:30;;;;;;;2.10;1.70;;;8.40;99.90;;;;;;5048614;28;20972;-72
2023/12/29 06:39:57;;;;;;;2.00;1.70;;;8.40;99.90;;;;;;5063263;28;20733;-72
2023/12/29 06:42:27;;;;;;;1.57;1.47;;;8.40;99.90;;;;;;5047142;28;20616;-72
2023/12/29 06:44:53;;;;;;;1.73;1.43;;;8.40;99.90;;;;;;5062046;27;20631;-72
2023/12/29 06:47:20;;;;;;;3.53;1.70;;;8.40;99.90;;;;;;5059259;28;20741;-72
2023/12/29 06:49:47;;;;;;;1.37;1.27;;;8.40;99.90;;;;;;5058718;28;21197;-72
2023/12/29 06:52:14;;;;;;;3.00;2.07;;;8.50;99.90;;;;;;5057076;28;20658;-72
2023/12/29 06:54:41;;;;;;;3.43;2.07;;;8.30;99.90;;;;;;5055937;28;20768;-72
2023/12/29 06:57:08;;;;;;;1.40;1.30;;;8.40;99.90;;;;;;5061259;28;20661;-72
2023/12/29 06:59:36;;;;;;;1.47;1.37;;;8.40;99.90;;;;;;5062762;28;20739;-72
2023/12/29 07:02:04;;;;;;;2.23;2.03;;;8.40;99.90;;;;;;5061735;28;21277;-72
2023/12/29 07:04:31;;;;;;;2.00;1.80;;;8.40;99.90;;;;;;5058525;27;21048;-73
2023/12/29 07:06:59;;;;;;;2.30;2.00;;;8.40;99.90;;;;;;5061426;28;20629;-72
2023/12/29 07:09:26;;;;;;;3.10;2.07;;;8.30;99.90;;;;;;5057443;27;20627;-72
2023/12/29 07:11:53;;;;;;;3.50;2.20;;;8.40;99.90;;;;;;5059951;28;20661;-72
2023/12/29 07:14:20;;;;;;;2.93;1.53;;;8.30;99.90;;;;;;5056489;28;20701;-72
2023/12/29 07:16:48;;;;;;;1.70;1.33;;;8.40;99.90;;;;;;5057135;28;20630;-73
2023/12/29 07:19:15;;;;;;;1.30;1.20;;;8.40;99.90;;;;;;5055554;28;20656;-72
2023/12/29 07:21:42;;;;;;;2.67;1.97;;;8.30;99.90;;;;;;5053829;28;20721;-72
2023/12/29 07:24:09;;;;;;;1.80;1.47;;;8.40;99.90;;;;;;5055307;28;20740;-72
2023/12/29 07:26:36;;;;;;;1.30;1.20;;;8.40;99.90;;;;;;5053043;28;20725;-73
2023/12/29 07:29:03;;;;;;;1.30;1.20;;;8.40;99.90;;;;;;5053566;28;21061;-72
2023/12/29 07:31:30;;;;;;;2.00;1.40;;;8.30;99.90;;;;;;5050986;28;20726;-72
2023/12/29 07:33:59;;;;;;;3.87;1.90;;;8.40;99.90;;;;;;5045481;28;20726;-73
2023/12/29 07:36:26;;;;;;;1.77;1.47;;;8.50;99.90;;;;;;5049881;28;20991;-72
2023/12/29 07:38:53;;;;;;;2.57;2.37;;;8.40;99.90;;;;;;5065776;28;20681;-73
2023/12/29 07:41:20;;;;;;;2.60;1.67;;;8.40;99.90;;;;;;5067721;28;20633;-72
2023/12/29 07:43:47;;;;;;;1.60;1.40;;;8.40;99.90;;;;;;5068309;28;20661;-73
2023/12/29 07:46:14;;;;;;;2.33;2.13;;;8.40;99.90;;;;;;5066120;28;20724;-73
2023/12/29 07:48:41;;;;;;;1.90;1.53;;;8.40;99.90;;;;;;5066708;28;20740;-73
2023/12/29 07:51:09;;;;;;;2.93;1.57;;;8.40;99.90;;;;;;5062795;27;21077;-72
2023/12/29 07:53:36;;;;;;;3.63;2.03;;;8.40;99.90;;;;;;5052391;28;20661;-72
2023/12/29 07:56:03;;;;;;;2.00;1.60;;;8.50;99.90;;;;;;5059400;28;20772;-73
2023/12/29 07:58:30;;;;;;;1.70;1.53;;;8.60;99.90;;;;;;5062528;28;20623;-72
2023/12/29 08:00:57;;;;;;;2.27;2.07;;;8.60;99.90;;;;;;5062650;28;20625;-72
2023/12/29 08:03:24;;;;;;;3.30;1.90;;;8.70;99.90;;;;;;5057838;28;21002;-73
2023/12/29 08:05:50;;;;;;;2.43;1.70;;;8.70;99.90;;;;;;5061101;28;20631;-72
2023/12/29 08:08:18;;;;;;;1.63;1.53;;;8.70;99.90;;;;;;5054674;28;20627;-72
2023/12/29 08:10:45;;;;;;;1.43;1.33;;;8.70;99.90;;;;;;5056020;28;20632;-73
2023/12/29 08:13:12;;;;;;;2.30;1.77;;;8.70;99.90;;;;;;5054469;27;20729;-72
2023/12/29 08:15:39;;;;;;;2.33;1.90;;;8.70;99.90;;;;;;5052964;28;20661;-72
2023/12/29 08:18:06;;;;;;;2.13;1.93;;;8.80;99.90;;;;;;5053387;28;20622;-72
2023/12/29 08:20:33;;;;;;;2.97;2.20;;;8.80;99.90;;;;;;5050790;28;20634;-72
2023/12/29 08:23:02;;;;;;;2.27;1.87;;;8.80;99.90;;;;;;5052777;28;20623;-72
2023/12/29 08:25:30;;;;;;;1.23;1.13;;;8.90;99.90;;;;;;5049875;27;20629;-73
2023/12/29 08:27:57;;;;;;;2.63;2.20;;;8.90;99.90;;;;;;5050445;28;20650;-72
2023/12/29 08:30:24;;;;;;;1.67;1.57;;;8.90;99.90;;;;;;5047672;28;20633;-73
2023/12/29 08:32:51;;;;;;;1.53;1.43;;;9.00;99.90;;;;;;5047729;28;20631;-73
2023/12/29 08:35:18;;;;;;;2.13;1.93;;;8.90;99.90;;;;;;5041874;28;20676;-73
2023/12/29 08:37:45;;;;;;;2.53;2.20;;;8.90;99.90;;;;;;5046637;27;20667;-73
2023/12/29 08:40:12;;;;;;;2.37;1.90;;;8.90;99.90;;;;;;5054934;28;20626;-72
2023/12/29 08:42:40;;;;;;;2.00;1.60;;;8.90;99.90;;;;;;5065123;28;20729;-72
2023/12/29 08:45:08;;;;;;;1.53;1.43;;;9.00;99.90;;;;;;5062802;28;20627;-73
2023/12/29 08:47:34;;;;;;;1.80;1.63;;;8.90;99.90;;;;;;5062931;28;20736;-72
2023/12/29 08:50:02;;;;;;;2.23;2.00;;;8.90;99.90;;;;;;5060327;28;20635;-72
2023/12/29 08:52:28;;;;;;;1.37;1.27;;;9.00;99.90;;;;;;5061336;28;20631;-72
2023/12/29 08:54:55;;;;;;;2.67;2.20;;;9.00;99.90;;;;;;5056342;28;20764;-72
2023/12/29 08:57:22;;;;;;;2.20;1.23;;;9.00;99.90;;;;;;5056075;28;20629;-72
2023/12/29 08:59:51;;;;;;;1.83;1.40;;;9.00;99.90;;;;;;5059773;27;20640;-72
2023/12/29 09:02:17;;;;;;;3.47;2.10;;;9.00;99.90;;;;;;5056006;27;20968;-72
2023/12/29 09:04:44;;;;;;;1.27;1.17;;;9.00;99.90;;;;;;5056004;28;20633;-73
2023/12/29 09:07:11;;;;;;;1.63;1.40;;;9.10;99.90;;;;;;5055677;28;20751;-73
2023/12/29 09:09:38;;;;;;;2.23;2.03;;;9.10;99.90;;;;;;5055249;28;20984;-73
2023/12/29 09:12:05;;;;;;;1.80;1.30;;;9.10;99.90;;;;;;5054729;28;20968;-72
2023/12/29 09:14:34;;;;;;;2.50;1.50;;;9.10;99.90;;;;;;5052248;28;20629;-72
2023/12/29 09:17:02;;;;;;;1.63;1.53;;;9.20;99.90;;;;;;5054474;27;20659;-72
2023/12/29 09:19:29;;;;;;;1.63;1.53;;;9.20;99.90;;;;;;5049962;28;20629;-72
2023/12/29 09:21:56;;;;;;;2.83;1.83;;;9.20;99.90;;;;;;5052055;28;20658;-73
2023/12/29 09:24:23;;;;;;;1.93;1.30;;;9.30;99.90;;;;;;5043852;28;20636;-72
2023/12/29 09:26:50;;;;;;;2.47;1.40;;;9.30;99.90;;;;;;5049037;28;20665;-72
2023/12/29 09:29:17;;;;;;;1.53;1.43;;;9.30;99.90;;;;;;5049025;27;20978;-72
2023/12/29 09:31:44;;;;;;;3.13;1.60;;;9.30;99.90;;;;;;5047133;28;20636;-72
2023/12/29 09:34:12;;;;;;;1.50;1.40;;;9.40;99.90;;;;;;5042143;28;20623;-72
2023/12/29 09:36:39;;;;;;;2.90;1.90;;;9.40;99.90;;;;;;5045901;28;20684;-72
2023/12/29 09:39:06;;;;;;;1.10;1.00;;;9.40;99.90;;;;;;5045443;28;20626;-73
2023/12/29 09:41:34;;;;;;;1.70;1.60;;;9.40;99.90;;;;;;5048403;28;20637;-72
2023/12/29 09:44:04;;;;;;;2.50;2.30;;;9.40;99.90;;;;;;5063650;28;20698;-73
2023/12/29 09:46:33;;;;;;;1.73;1.63;;;9.60;99.90;;;;;;5063052;28;20640;-72
2023/12/29 09:49:04;;;;;;;2.30;1.77;;;9.50;99.90;;;;;;5060376;28;20645;-73
2023/12/29 09:51:32;;;;;;;2.10;1.50;;;9.50;99.90;;;;;;5060977;28;20627;-73
2023/12/29 09:54:00;;;;;;;2.10;1.63;;;9.40;99.90;;;;;;5060278;28;21046;-72
2023/12/29 09:56:26;;;;;;;1.10;1.00;;;9.40;99.90;;;;;;5054302;28;20684;-72
2023/12/29 09:58:54;;;;;;;1.27;1.10;;;9.40;99.90;;;;;;5060007;28;20634;-72
2023/12/29 10:01:22;;;;;;;1.00;1.00;;;9.40;99.90;;;;;;5055722;28;20627;-72
2023/12/29 10:03:49;;;;;;;1.80;1.63;;;9.50;99.90;;;;;;5056630;28;21239;-73
2023/12/29 10:06:21;;;;;;;1.03;0.87;;;9.50;99.90;;;;;;5054611;28;20680;-73
2023/12/29 10:08:51;;;;;;;1.13;1.03;;;9.50;99.90;;;;;;5056644;28;21194;-72
2023/12/29 10:11:19;;;;;;;1.37;1.27;;;9.50;99.90;;;;;;5052742;28;20987;-72
2023/12/29 10:13:50;;;;;;;1.60;1.37;;;9.50;99.90;;;;;;5054343;28;20634;-73
2023/12/29 10:16:24;;;;;;;1.83;1.73;;;9.40;99.90;;;;;;5051770;28;21043;-72
2023/12/29 10:19:06;;;;;;;1.73;1.57;;;9.60;99.90;;;;;;5051867;28;20656;-73
2023/12/29 10:21:40;;;;;;;1.87;1.77;;;9.60;99.90;;;;;;5044855;28;20635;-72
2023/12/29 10:24:13;;;;;;;1.40;1.30;;;9.80;99.90;;;;;;5046162;28;20634;-73
2023/12/29 10:26:43;;;;;;;1.33;1.23;;;9.80;99.90;;;;;;5047619;28;20629;-72
2023/12/29 10:29:10;;;;;;;1.70;1.17;;;9.70;99.90;;;;;;5045167;28;21219;-72
2023/12/29 10:31:38;;;;;;;1.70;1.60;;;9.60;99.90;;;;;;5045761;28;21194;-73
2023/12/29 10:34:22;;;;;;;1.40;1.30;;;9.70;99.90;;;;;;5040910;28;20634;-73
2023/12/29 10:36:49;;;;;;;0.90;0.90;;;9.80;99.90;;;;;;5045283;27;20672;-73
2023/12/29 10:39:18;;;;;;;0.90;0.50;;;9.90;99.90;;;;;;5044340;28;20624;-73
2023/12/29 10:41:45;;;;;;;0.80;0.80;;;9.90;99.90;;;;;;5049402;28;20728;-72
2023/12/29 10:44:11;;;;;;;1.23;0.80;;;10.00;99.90;;;;;;5062253;28;20637;-72
2023/12/29 10:46:38;;;;;;;1.00;0.80;;;10.00;99.90;;;;;;5062067;28;20626;-72
2023/12/29 10:49:10;;;;;;;1.17;1.00;;;10.10;99.90;;;;;;5058321;28;20653;-72
2023/12/29 10:51:37;;;;;;;0.87;0.80;;;10.10;99.90;;;;;;5047508;28;20628;-73
2023/12/29 10:54:04;;;;;;;1.90;1.40;;;10.20;99.90;;;;;;5059024;28;20641;-72
2023/12/29 10:56:32;;;;;;;0.90;0.90;;;10.20;99.90;;;;;;5054311;28;20671;-73
2023/12/29 10:59:02;;;;;;;1.30;1.20;;;10.20;99.90;;;;;;5058695;28;21010;-73
2023/12/29 11:01:29;;;;;;;3.23;0.80;;;10.30;99.90;;;;;;5055643;27;20672;-73
2023/12/29 11:04:00;;;;;;;0.97;0.87;;;10.30;99.90;;;;;;5055716;28;20628;-73
2023/12/29 11:06:28;;;;;;;1.20;1.10;;;10.30;99.90;;;;;;5050796;28;20617;-72
2023/12/29 11:08:55;;;;;;;1.17;1.07;;;10.20;99.90;;;;;;5055512;28;20636;-73
2023/12/29 11:11:22;;;;;;;1.80;1.70;;;10.20;99.90;;;;;;5051239;28;21185;-72
2023/12/29 11:13:51;;;;;;;1.03;0.73;;;10.30;99.90;;;;;;5053782;28;20628;-72
2023/12/29 11:16:21;;;;;;;0.80;0.80;;;10.30;99.90;;;;;;5051011;28;21071;-72
2023/12/29 11:18:49;;;;;;;1.20;1.10;;;10.40;99.90;;;;;;5051766;27;21089;-72
2023/12/29 11:21:17;;;;;;;1.43;0.90;;;10.40;99.90;;;;;;5048863;28;20633;-72
2023/12/29 11:23:43;;;;;;;1.27;0.90;;;10.40;99.90;;;;;;5048069;28;20667;-72
2023/12/29 11:26:11;;;;;;;1.20;1.10;;;10.50;99.90;;;;;;5049059;28;21017;-72
2023/12/29 11:28:38;;;;;;;1.13;1.03;;;10.50;99.90;;;;;;5047074;28;20665;-74
2023/12/29 11:31:06;;;;;;;1.13;1.03;;;10.50;99.90;;;;;;5046730;28;20649;-72
2023/12/29 11:33:39;;;;;;;0.80;0.80;;;10.60;99.90;;;;;;5042763;28;20630;-72
2023/12/29 11:36:13;;;;;;;1.57;0.80;;;10.60;99.90;;;;;;5043305;28;21273;-72
2023/12/29 11:38:49;;;;;;;0.70;0.70;;;10.60;99.90;;;;;;5044302;28;20644;-72
2023/12/29 11:41:22;;;;;;;1.73;1.17;;;10.60;99.90;;;;;;5045876;27;20678;-72
2023/12/29 11:43:58;;;;;;;1.00;0.90;;;10.60;99.90;;;;;;5065804;27;20636;-72
2023/12/29 11:46:36;;;;;;;1.00;0.90;;;10.60;99.90;;;;;;5064111;28;20632;-72
2023/12/29 11:49:04;;;;;;;0.87;0.87;;;10.70;99.90;;;;;;5061594;28;20640;-72
2023/12/29 11:51:32;;;;;;;1.13;0.77;;;10.80;99.90;;;;;;5063244;28;20957;-73
2023/12/29 11:54:00;;;;;;;1.40;1.00;;;10.70;99.90;;;;;;5062189;28;20631;-74
2023/12/29 11:56:32;;;;;;;1.13;0.80;;;10.70;99.90;;;;;;5055848;28;20659;-72
2023/12/29 11:59:13;;;;;;;1.47;1.30;;;10.70;99.90;;;;;;5060756;28;20629;-72
2023/12/29 12:01:42;;;;;;;1.23;1.13;;;10.80;99.90;;;;;;5060051;28;20997;-72
2023/12/29 12:04:40;;;;;;;1.00;0.90;;;10.80;99.90;;;;;;5055897;28;20717;-72
2023/12/29 12:07:09;;;;;;;1.30;1.20;;;10.90;99.90;;;;;;5053066;28;20626;-72
2023/12/29 12:09:36;;;;;;;0.90;0.90;;;11.00;99.90;;;;;;5056490;27;20626;-72
2023/12/29 12:12:04;;;;;;;1.20;1.07;;;11.00;99.90;;;;;;5056585;28;20977;-72
2023/12/29 12:14:51;;;;;;;1.47;0.90;;;11.10;99.90;;;;;;5053414;28;20959;-72
2023/12/29 12:17:40;;;;;;;1.37;1.10;;;11.20;99.90;;;;;;5051509;28;20811;-72
2023/12/29 12:20:09;;;;;;;0.97;0.93;;;11.20;99.90;;;;;;5046362;28;21143;-72
2023/12/29 12:22:37;;;;;;;0.83;0.83;;;11.20;99.90;;;;;;5051358;28;20633;-72
2023/12/29 12:25:04;;;;;;;0.90;0.77;;;11.10;99.90;;;;;;5052661;28;20629;-72
2023/12/29 12:27:32;;;;;;;1.40;1.30;;;11.20;99.90;;;;;;5049529;28;20715;-72
2023/12/29 12:30:00;;;;;;;0.80;0.80;;;11.20;99.90;;;;;;5050015;28;20653;-72
2023/12/29 12:32:27;;;;;;;1.10;1.00;;;11.20;99.80;;;;;;5047947;28;21389;-72
2023/12/29 12:34:56;;;;;;;0.87;0.83;;;11.30;99.90;;;;;;5041863;28;21060;-72
2023/12/29 12:37:24;;;;;;;1.67;1.03;;;11.40;99.90;;;;;;5046294;28;20673;-72
2023/12/29 12:39:51;;;;;;;1.87;1.30;;;11.40;99.90;;;;;;5045922;28;21270;-73
2023/12/29 12:42:19;;;;;;;0.87;0.80;;;11.40;99.90;;;;;;5063485;28;20660;-72
2023/12/29 12:44:54;;;;;;;1.57;1.20;;;11.40;99.90;;;;;;5063945;28;20723;-72
2023/12/29 12:47:28;;;;;;;1.10;1.00;;;11.50;99.90;;;;;;5062836;27;20740;-73
2023/12/29 12:49:56;;;;;;;0.70;0.70;;;11.70;99.90;;;;;;5060950;28;20634;-72
2023/12/29 12:52:23;;;;;;;1.17;1.07;;;11.70;99.90;;;;;;5059786;28;20634;-73
2023/12/29 12:54:50;;;;;;;1.23;1.13;;;11.80;99.90;;;;;;5056972;28;20633;-73
2023/12/29 12:57:21;;;;;;;1.10;1.00;;;11.80;99.90;;;;;;5056980;28;20673;-73
2023/12/29 12:59:50;;;;;;;0.90;0.90;;;11.90;99.90;;;;;;5050244;28;21169;-73